Time;durP1;ratioP1;P1;durP2;ratioP2;P2;SDS_P1;SDS_P2;PMS_P1;PMS_P2;Temp;Humidity;BMP_temperature;BMP_pressure;BME280_temperature;BME280_humidity;BME280_pressure;Samples;Min_cycle;Max_cycle;Signal;HPM_P1;HPM_P2
2020/12/29 00:02:12;;;;;;;7.50;3.45;;;;;;;-0.42;100.00;96576.97;4879568;29;20047;-81
2020/12/29 00:05:14;;;;;;;21.25;3.30;;;;;;;-0.51;100.00;96579.09;4879834;29;20116;-81
2020/12/29 00:08:18;;;;;;;4.55;2.60;;;;;;;-0.64;100.00;96578.72;4879459;29;20106;-81
2020/12/29 00:11:22;;;;;;;2.08;1.83;;;;;;;-0.72;100.00;96586.59;4880284;29;20132;-80
2020/12/29 00:14:25;;;;;;;3.88;2.13;;;;;;;-0.80;100.00;96580.78;4880164;29;20048;-80
2020/12/29 00:17:28;;;;;;;19.95;4.20;;;;;;;-0.89;100.00;96582.91;4878449;29;20047;-81
2020/12/29 00:20:31;;;;;;;5.70;2.38;;;;;;;-0.97;100.00;96587.28;4879834;29;20565;-81
2020/12/29 00:23:34;;;;;;;8.77;2.80;;;;;;;-1.06;100.00;96576.50;4880091;29;20092;-79
2020/12/29 00:26:37;;;;;;;14.23;3.85;;;;;;;-1.17;100.00;96576.38;4879365;29;20093;-80
2020/12/29 00:29:40;;;;;;;5.95;3.28;;;;;;;-1.25;100.00;96594.34;4879130;29;20409;-81
2020/12/29 00:32:43;;;;;;;5.60;2.17;;;;;;;-1.33;100.00;96593.25;4879244;29;20120;-80
2020/12/29 00:35:45;;;;;;;10.23;3.65;;;;;;;-1.39;100.00;96586.97;4880159;29;20055;-81
2020/12/29 00:38:48;;;;;;;1.58;1.45;;;;;;;-1.43;100.00;96587.19;4879900;29;20048;-81
2020/12/29 00:41:54;;;;;;;2.40;1.73;;;;;;;-1.47;100.00;96588.63;4878626;29;20087;-80
2020/12/29 00:44:57;;;;;;;15.32;6.30;;;;;;;-1.52;100.00;96594.72;4868637;29;20060;-81
2020/12/29 00:48:00;;;;;;;12.95;4.50;;;;;;;-1.56;100.00;96586.75;4867948;29;20450;-81
2020/12/29 00:51:07;;;;;;;9.52;2.92;;;;;;;-1.62;100.00;96578.47;4867996;29;20048;-80
2020/12/29 00:54:10;;;;;;;5.45;2.70;;;;;;;-1.68;100.00;96577.66;4879298;29;20059;-81
2020/12/29 00:57:13;;;;;;;6.32;2.08;;;;;;;-1.69;100.00;96591.78;4879210;29;20438;-80
2020/12/29 01:00:16;;;;;;;15.65;4.03;;;;;;;-1.71;100.00;96596.94;4867865;29;20097;-80
2020/12/29 01:03:18;;;;;;;2.63;1.60;;;;;;;-1.74;100.00;96598.63;4879635;29;20127;-80
2020/12/29 01:06:28;;;;;;;8.55;2.47;;;;;;;-1.73;100.00;96593.91;4879361;29;20048;-80
2020/12/29 01:09:31;;;;;;;10.35;5.05;;;;;;;-1.71;100.00;96592.22;4879214;29;20398;-80
2020/12/29 01:12:34;;;;;;;12.48;2.92;;;;;;;-1.71;100.00;96594.22;4879350;29;20405;-80
2020/12/29 01:15:37;;;;;;;5.13;2.25;;;;;;;-1.70;100.00;96603.88;4867534;29;20083;-80
2020/12/29 01:18:40;;;;;;;15.38;3.42;;;;;;;-1.78;100.00;96603.53;4879106;29;20559;-80
2020/12/29 01:21:43;;;;;;;14.63;3.30;;;;;;;-1.83;100.00;96589.81;4867443;29;20589;-80
2020/12/29 01:24:46;;;;;;;13.65;3.35;;;;;;;-1.86;100.00;96585.28;4867382;29;20462;-81
2020/12/29 01:27:49;;;;;;;21.02;3.58;;;;;;;-1.88;100.00;96604.84;4866866;29;20195;-82
2020/12/29 01:30:52;;;;;;;6.43;4.25;;;;;;;-1.91;100.00;96614.00;4867213;29;20060;-80
2020/12/29 01:33:56;;;;;;;17.73;2.97;;;;;;;-1.93;100.00;96624.63;4867328;29;20109;-80
2020/12/29 01:36:59;;;;;;;2.92;1.88;;;;;;;-1.96;100.00;96625.53;4867367;29;20104;-80
2020/12/29 01:40:03;;;;;;;3.15;2.85;;;;;;;-1.97;100.00;96626.75;4867259;29;20053;-80
2020/12/29 01:43:06;;;;;;;7.00;3.30;;;;;;;-1.97;100.00;96629.47;4878876;29;20071;-81
2020/12/29 01:46:09;;;;;;;7.20;3.40;;;;;;;-1.99;100.00;96639.38;4878891;29;20128;-80
2020/12/29 01:49:12;;;;;;;4.88;3.50;;;;;;;-2.03;100.00;96647.72;4878617;29;20095;-81
2020/12/29 01:52:15;;;;;;;8.10;3.47;;;;;;;-2.07;100.00;96641.72;4878132;29;20044;-80
2020/12/29 01:55:17;;;;;;;3.05;1.88;;;;;;;-2.11;100.00;96646.59;4878557;29;20048;-79
2020/12/29 01:58:20;;;;;;;5.90;2.95;;;;;;;-2.10;100.00;96652.81;4878511;29;20574;-79
2020/12/29 02:01:24;;;;;;;5.80;2.97;;;;;;;-2.11;100.00;96662.97;4878586;29;20079;-79
2020/12/29 02:04:27;;;;;;;6.40;3.08;;;;;;;-2.09;100.00;96663.25;4877631;29;20044;-79
2020/12/29 02:07:31;;;;;;;6.03;2.63;;;;;;;-2.05;100.00;96669.25;4878422;29;20048;-79
2020/12/29 02:10:34;;;;;;;8.23;3.55;;;;;;;-2.02;100.00;96668.31;4878741;29;20133;-79
2020/12/29 02:13:41;;;;;;;3.88;2.38;;;;;;;-1.97;100.00;96673.09;4878546;29;20059;-79
2020/12/29 02:16:44;;;;;;;3.00;2.80;;;;;;;-1.96;100.00;96682.03;4878627;29;20109;-79
2020/12/29 02:19:48;;;;;;;5.55;2.88;;;;;;;-1.97;100.00;96684.00;4878392;29;20051;-79
2020/12/29 02:22:51;;;;;;;13.60;3.10;;;;;;;-1.98;100.00;96677.06;4878451;29;20523;-79
2020/12/29 02:25:54;;;;;;;9.27;3.95;;;;;;;-1.94;100.00;96683.09;4877941;29;20075;-80
2020/12/29 02:29:02;;;;;;;2.85;2.08;;;;;;;-1.89;100.00;96685.16;4877971;29;20040;-79
2020/12/29 02:32:05;;;;;;;6.38;3.03;;;;;;;-1.85;100.00;96683.00;4878299;29;20462;-78
2020/12/29 02:35:09;;;;;;;4.80;2.83;;;;;;;-1.82;100.00;96689.50;4878388;29;20112;-79
2020/12/29 02:38:12;;;;;;;9.30;2.25;;;;;;;-1.82;100.00;96694.94;4877813;29;20080;-79
2020/12/29 02:41:18;;;;;;;7.30;3.08;;;;;;;-1.85;100.00;96696.63;4879530;29;20124;-79
2020/12/29 02:44:21;;;;;;;3.03;1.92;;;;;;;-1.83;100.00;96702.38;4882078;29;20048;-78
2020/12/29 02:47:24;;;;;;;7.43;2.60;;;;;;;-1.80;100.00;96709.59;4881941;29;20051;-79
2020/12/29 02:50:31;;;;;;;8.60;3.53;;;;;;;-1.82;100.00;96714.03;4869999;29;20048;-78
2020/12/29 02:53:34;;;;;;;18.10;5.80;;;;;;;-1.82;100.00;96719.50;4881475;29;20049;-79
2020/12/29 02:56:37;;;;;;;10.85;3.63;;;;;;;-1.79;100.00;96722.03;4881498;29;20064;-79
2020/12/29 02:59:40;;;;;;;6.45;3.20;;;;;;;-1.74;100.00;96718.66;4881512;29;20036;-79
2020/12/29 03:02:43;;;;;;;3.10;2.08;;;;;;;-1.70;100.00;96719.19;4881193;29;20097;-79
2020/12/29 03:05:45;;;;;;;9.75;3.63;;;;;;;-1.70;100.00;96727.38;4881295;29;20072;-78
2020/12/29 03:08:49;;;;;;;6.82;3.08;;;;;;;-1.71;100.00;96722.41;4869314;29;20056;-78
2020/12/29 03:11:52;;;;;;;6.00;1.88;;;;;;;-1.70;100.00;96735.56;4869633;29;20069;-79
2020/12/29 03:14:55;;;;;;;5.95;3.80;;;;;;;-1.72;100.00;96727.09;4868927;29;20088;-78
2020/12/29 03:17:58;;;;;;;20.75;2.65;;;;;;;-1.75;100.00;96722.56;4868774;29;20128;-78
2020/12/29 03:21:01;;;;;;;1.92;1.73;;;;;;;-1.72;100.00;96721.66;4881082;29;20509;-79
2020/12/29 03:24:04;;;;;;;4.90;2.17;;;;;;;-1.75;100.00;96730.75;4869526;29;20641;-80
2020/12/29 03:27:07;;;;;;;8.50;2.97;;;;;;;-1.78;100.00;96741.88;4880991;29;20044;-79
2020/12/29 03:30:09;;;;;;;14.43;4.65;;;;;;;-1.78;100.00;96744.59;4869293;29;20060;-79
2020/12/29 03:33:12;;;;;;;10.98;2.20;;;;;;;-1.81;100.00;96740.81;4869124;29;20123;-78
2020/12/29 03:36:15;;;;;;;3.90;1.13;;;;;;;-1.77;100.00;96749.56;4868634;29;20117;-81
2020/12/29 03:39:18;;;;;;;11.93;3.40;;;;;;;-1.78;100.00;96752.78;4869198;29;20518;-80
2020/12/29 03:42:21;;;;;;;2.00;1.90;;;;;;;-1.76;100.00;96764.72;4868863;29;20067;-81
2020/12/29 03:45:24;;;;;;;16.00;3.10;;;;;;;-1.77;100.00;96760.47;4862046;29;20101;-79
2020/12/29 03:48:27;;;;;;;19.38;3.25;;;;;;;-1.86;100.00;96770.69;4850453;29;20718;-78
2020/12/29 03:51:30;;;;;;;7.20;2.92;;;;;;;-1.90;100.00;96784.53;4861908;29;20132;-78
2020/12/29 03:54:33;;;;;;;8.73;2.50;;;;;;;-1.89;100.00;96777.88;4849997;29;20052;-79
2020/12/29 03:57:36;;;;;;;6.82;1.23;;;;;;;-1.87;100.00;96783.59;4850094;29;20563;-80
2020/12/29 04:00:39;;;;;;;6.53;3.92;;;;;;;-1.85;100.00;96783.13;4850399;29;20055;-80
2020/12/29 04:03:43;;;;;;;7.28;2.75;;;;;;;-1.88;100.00;96776.63;4850130;29;20041;-80
2020/12/29 04:06:46;;;;;;;18.05;2.85;;;;;;;-1.84;100.00;96774.47;4850111;29;20052;-79
2020/12/29 04:09:49;;;;;;;22.33;1.70;;;;;;;-1.82;100.00;96782.94;4850276;29;20129;-79
2020/12/29 04:12:52;;;;;;;13.38;3.80;;;;;;;-1.78;100.00;96783.53;4850101;29;20048;-80
2020/12/29 04:15:55;;;;;;;1.25;0.77;;;;;;;-1.75;100.00;96779.84;4861661;29;20108;-80
2020/12/29 04:18:57;;;;;;;18.60;3.42;;;;;;;-1.72;100.00;96784.38;4850033;29;20049;-80
2020/12/29 04:22:00;;;;;;;5.47;2.63;;;;;;;-1.69;100.00;96780.69;4861659;29;20048;-80
2020/12/29 04:25:08;;;;;;;14.48;1.23;;;;;;;-1.65;100.00;96797.66;4850065;29;20065;-81
2020/12/29 04:28:10;;;;;;;4.50;1.77;;;;;;;-1.62;100.00;96793.22;4861371;29;20053;-79
2020/12/29 04:31:15;;;;;;;13.52;2.22;;;;;;;-1.58;100.00;96801.97;4849839;29;20056;-80
2020/12/29 04:34:18;;;;;;;21.05;4.15;;;;;;;-1.51;100.00;96809.78;4850159;29;20060;-80
2020/12/29 04:37:20;;;;;;;4.50;1.73;;;;;;;-1.49;100.00;96809.34;4849651;29;20048;-80
2020/12/29 04:40:23;;;;;;;6.72;2.25;;;;;;;-1.44;100.00;96806.69;4849403;29;20525;-81
2020/12/29 04:43:27;;;;;;;12.20;2.50;;;;;;;-1.40;100.00;96814.69;4867401;29;20097;-80
2020/12/29 04:46:30;;;;;;;7.75;2.78;;;;;;;-1.35;100.00;96805.84;4867529;29;20100;-81
2020/12/29 04:49:34;;;;;;;1.50;1.35;;;;;;;-1.30;100.00;96816.13;4867491;29;20071;-80
2020/12/29 04:52:39;;;;;;;5.63;2.00;;;;;;;-1.26;100.00;96816.69;4868130;29;20104;-80
2020/12/29 04:55:44;;;;;;;1.92;1.10;;;;;;;-1.24;100.00;96825.91;4867583;29;20230;-80
2020/12/29 04:58:48;;;;;;;7.35;2.28;;;;;;;-1.23;100.00;96829.38;4879817;29;20405;-80
2020/12/29 05:01:51;;;;;;;7.10;2.28;;;;;;;-1.20;100.00;96836.63;4868043;29;20091;-80
2020/12/29 05:04:54;;;;;;;4.47;2.00;;;;;;;-1.20;100.00;96831.94;4879013;29;20052;-80
2020/12/29 05:07:57;;;;;;;5.47;3.05;;;;;;;-1.16;100.00;96848.13;4867695;29;20048;-80
2020/12/29 05:11:00;;;;;;;1.50;1.30;;;;;;;-1.15;100.00;96844.91;4867940;29;20060;-80
2020/12/29 05:14:03;;;;;;;2.78;1.40;;;;;;;-1.11;100.00;96855.66;4879271;29;20513;-79
2020/12/29 05:17:06;;;;;;;7.32;2.08;;;;;;;-1.07;100.00;96854.25;4879129;29;20039;-80
2020/12/29 05:20:09;;;;;;;9.80;2.15;;;;;;;-1.03;100.00;96862.25;4867570;29;20044;-80
2020/12/29 05:23:12;;;;;;;3.85;2.28;;;;;;;-1.03;100.00;96862.25;4867351;29;20462;-80
2020/12/29 05:26:15;;;;;;;12.30;3.38;;;;;;;-1.00;100.00;96867.53;4867440;29;20135;-80
2020/12/29 05:29:21;;;;;;;3.10;1.65;;;;;;;-0.97;100.00;96877.50;4878891;29;20410;-80
2020/12/29 05:32:56;;;;;;;3.22;1.98;;;;;;;-0.94;100.00;96882.03;4897793;23;20065;-80
2020/12/29 05:36:01;;;;;;;8.57;1.73;;;;;;;-0.90;100.00;96877.13;4855316;29;20063;-79
2020/12/29 05:39:09;;;;;;;5.15;1.08;;;;;;;-0.85;100.00;96883.91;4859949;29;20117;-79
2020/12/29 05:42:23;;;;;;;6.82;2.60;;;;;;;-0.86;100.00;96879.66;4859871;29;20524;-79
2020/12/29 05:45:28;;;;;;;8.18;2.85;;;;;;;-0.85;100.00;96881.19;4859509;29;20507;-79
2020/12/29 05:48:31;;;;;;;6.60;3.35;;;;;;;-0.82;100.00;96888.41;4859892;29;20109;-79
2020/12/29 05:51:34;;;;;;;7.13;2.00;;;;;;;-0.83;100.00;96889.66;4849981;29;20053;-79
2020/12/29 05:54:39;;;;;;;4.53;2.90;;;;;;;-0.82;100.00;96893.88;4859689;29;20069;-79
2020/12/29 05:57:42;;;;;;;9.32;3.92;;;;;;;-0.79;100.00;96892.94;4859448;29;20144;-79
2020/12/29 06:00:45;;;;;;;3.67;1.75;;;;;;;-0.79;100.00;96903.88;4859615;29;20056;-79
2020/12/29 06:03:50;;;;;;;20.02;4.15;;;;;;;-0.75;100.00;96907.16;4859999;29;20052;-79
2020/12/29 06:06:58;;;;;;;3.28;3.03;;;;;;;-0.76;100.00;96908.41;4859582;29;20049;-80
2020/12/29 06:10:02;;;;;;;3.25;2.65;;;;;;;-0.76;100.00;96913.88;4858757;29;20070;-79
2020/12/29 06:13:06;;;;;;;14.38;3.67;;;;;;;-0.74;100.00;96916.13;4859628;29;20463;-79
2020/12/29 06:16:15;;;;;;;11.38;4.68;;;;;;;-0.75;100.00;96909.91;4860310;29;20206;-80
2020/12/29 06:19:29;;;;;;;1.70;1.27;;;;;;;-0.75;100.00;96915.34;4862246;29;20056;-79
2020/12/29 06:22:34;;;;;;;11.32;3.45;;;;;;;-0.73;100.00;96918.38;4863318;29;20145;-80
2020/12/29 06:25:37;;;;;;;20.65;4.05;;;;;;;-0.70;100.00;96927.59;4873140;29;20061;-80
2020/12/29 06:28:47;;;;;;;4.28;2.63;;;;;;;-0.68;100.00;96936.09;4862918;29;20410;-80
2020/12/29 06:31:51;;;;;;;10.20;2.95;;;;;;;-0.67;100.00;96938.34;4863175;29;20056;-79
2020/12/29 06:34:55;;;;;;;8.32;2.72;;;;;;;-0.67;100.00;96943.81;4862917;29;20148;-79
2020/12/29 06:38:22;;;;;;;8.95;3.78;;;;;;;-0.66;100.00;96945.31;4851523;29;20129;-80
2020/12/29 06:41:28;;;;;;;12.50;1.98;;;;;;;-0.70;100.00;96944.75;4862911;29;20048;-79
2020/12/29 06:44:34;;;;;;;23.25;4.20;;;;;;;-0.67;100.00;96954.72;4862707;29;20048;-80
2020/12/29 06:47:39;;;;;;;11.75;3.15;;;;;;;-0.66;100.00;96950.03;4862824;29;20064;-79
2020/12/29 06:50:41;;;;;;;12.77;5.00;;;;;;;-0.66;100.00;96945.31;4862776;29;20101;-79
2020/12/29 06:53:44;;;;;;;18.40;4.75;;;;;;;-0.66;100.00;96953.53;4851282;29;20060;-79
2020/12/29 06:56:59;;;;;;;11.32;4.20;;;;;;;-0.66;100.00;96963.69;4862547;29;20414;-79
2020/12/29 07:00:11;;;;;;;19.67;5.10;;;;;;;-0.65;100.00;96968.66;4851349;29;20113;-79
2020/12/29 07:03:30;;;;;;;;;;;;;;;-0.66;100.00;96977.34;4863085;29;20459;-80
2020/12/29 07:06:35;;;;;;;34.38;6.38;;;;;;;-0.66;100.00;96978.09;4851203;29;19927;-80
2020/12/29 07:09:44;;;;;;;4.15;2.15;;;;;;;-0.64;100.00;96983.09;4862243;29;20558;-79
2020/12/29 07:12:51;;;;;;;26.42;4.97;;;;;;;-0.67;100.00;96987.53;4862274;29;20398;-79
2020/12/29 07:15:54;;;;;;;5.13;3.20;;;;;;;-0.66;100.00;96991.00;4850766;29;20501;-80
2020/12/29 07:19:12;;;;;;;11.65;3.10;;;;;;;-0.66;100.00;96999.97;4850607;29;20088;-80
2020/12/29 07:22:17;;;;;;;24.27;5.10;;;;;;;-0.66;100.00;96999.22;4861611;29;20097;-80
2020/12/29 07:25:23;;;;;;;23.83;3.38;;;;;;;-0.67;100.00;96995.72;4859352;29;20097;-79
2020/12/29 07:28:28;;;;;;;12.27;3.67;;;;;;;-0.67;100.00;97003.91;4845762;29;20516;-79
2020/12/29 07:31:38;;;;;;;12.60;3.63;;;;;;;-0.67;100.00;97003.19;4861823;29;20061;-79
2020/12/29 07:34:42;;;;;;;9.88;2.60;;;;;;;-0.68;100.00;97002.41;4853725;29;20545;-80
2020/12/29 07:37:50;;;;;;;14.75;5.25;;;;;;;-0.68;100.00;97001.66;4861889;29;20120;-80
2020/12/29 07:40:53;;;;;;;9.63;3.47;;;;;;;-0.68;100.00;97004.38;4855490;29;20069;-80
2020/12/29 07:43:57;;;;;;;29.05;6.70;;;;;;;-0.73;100.00;97011.25;4859314;29;20052;-80
2020/12/29 07:46:59;;;;;;;6.40;3.13;;;;;;;-0.73;100.00;97019.47;4866449;29;20070;-79
2020/12/29 07:50:03;;;;;;;13.98;2.50;;;;;;;-0.72;100.00;97014.75;4855085;29;20057;-79
2020/12/29 07:53:10;;;;;;;7.22;2.42;;;;;;;-0.72;100.00;97023.72;4867221;29;20053;-79
2020/12/29 07:56:14;;;;;;;9.82;3.67;;;;;;;-0.71;100.00;97033.41;4866776;29;20047;-79
2020/12/29 07:59:17;;;;;;;7.32;1.63;;;;;;;-0.70;100.00;97037.66;4861009;29;20065;-79
2020/12/29 08:02:20;;;;;;;21.27;3.20;;;;;;;-0.70;100.00;97037.66;4872829;29;20048;-79
2020/12/29 08:05:25;;;;;;;10.48;2.97;;;;;;;-0.67;100.00;97046.91;4856183;29;20406;-80
2020/12/29 08:08:28;;;;;;;8.20;4.07;;;;;;;-0.69;100.00;97047.34;4857367;29;20169;-79
2020/12/29 08:11:32;;;;;;;27.55;5.93;;;;;;;-0.68;100.00;97057.06;4856419;29;20045;-79
2020/12/29 08:14:39;;;;;;;14.40;2.60;;;;;;;-0.68;100.00;97062.53;4871595;29;20072;-79
2020/12/29 08:17:42;;;;;;;10.90;3.30;;;;;;;-0.69;100.00;97063.75;4866809;29;20066;-80
2020/12/29 08:20:48;;;;;;;22.75;5.18;;;;;;;-0.67;100.00;97072.22;4870416;29;20056;-79
2020/12/29 08:23:55;;;;;;;5.53;2.95;;;;;;;-0.69;100.00;97071.94;4842351;29;20066;-79
2020/12/29 08:26:59;;;;;;;6.97;2.45;;;;;;;-0.67;100.00;97080.41;4843546;29;20499;-81
2020/12/29 08:30:03;;;;;;;8.77;2.33;;;;;;;-0.64;100.00;97092.41;4861227;29;20072;-79
2020/12/29 08:33:07;;;;;;;3.90;2.13;;;;;;;-0.66;100.00;97098.34;4860830;29;20605;-78
2020/12/29 08:36:11;;;;;;;7.53;2.90;;;;;;;-0.64;100.00;97100.59;4849530;29;20056;-78
2020/12/29 08:39:37;;;;;;;5.25;1.80;;;;;;;-0.65;100.00;97099.81;4860320;29;20117;-78
2020/12/29 08:42:42;;;;;;;8.00;3.97;;;;;;;-0.64;100.00;97106.81;4860623;29;20052;-78
2020/12/29 08:45:46;;;;;;;4.38;2.20;;;;;;;-0.64;100.00;97112.28;4861182;29;20153;-78
2020/12/29 08:49:00;;;;;;;3.95;1.42;;;;;;;-0.64;100.00;97112.28;4860829;29;20125;-78
2020/12/29 08:52:03;;;;;;;3.13;2.83;;;;;;;-0.62;100.00;97122.72;4861250;29;20057;-78
2020/12/29 08:55:26;;;;;;;4.65;2.40;;;;;;;-0.61;100.00;97127.75;4849404;29;20086;-78
2020/12/29 08:58:30;;;;;;;10.18;1.88;;;;;;;-0.62;100.00;97126.22;4860593;29;20531;-79
2020/12/29 09:01:34;;;;;;;6.78;3.35;;;;;;;-0.62;100.00;97126.22;4860701;29;20190;-79
2020/12/29 09:04:40;;;;;;;24.27;4.78;;;;;;;-0.62;100.00;97123.50;4847636;29;20080;-79
2020/12/29 09:07:43;;;;;;;8.57;3.20;;;;;;;-0.60;100.00;97140.19;4856107;29;20116;-77
2020/12/29 09:10:46;;;;;;;5.18;3.10;;;;;;;-0.57;100.00;97138.50;4860418;29;20059;-79
2020/12/29 09:14:05;;;;;;;8.40;2.83;;;;;;;-0.56;100.00;97146.22;4849091;29;20067;-80
2020/12/29 09:17:08;;;;;;;4.63;2.35;;;;;;;-0.55;100.00;97149.72;4860477;29;20459;-79
2020/12/29 09:20:13;;;;;;;6.68;2.28;;;;;;;-0.54;100.00;97154.72;4849189;29;20102;-79
2020/12/29 09:23:18;;;;;;;4.00;2.25;;;;;;;-0.55;100.00;97158.69;4860530;29;20060;-79
2020/12/29 09:26:21;;;;;;;4.57;2.15;;;;;;;-0.53;100.00;97161.69;4849779;29;20105;-78
2020/12/29 09:29:24;;;;;;;1.60;1.25;;;;;;;-0.49;100.00;97173.19;4841746;29;20117;-79
2020/12/29 09:32:28;;;;;;;2.03;1.13;;;;;;;-0.50;100.00;97171.72;4833951;29;20076;-76
2020/12/29 09:35:32;;;;;;;4.97;1.35;;;;;;;-0.49;100.00;97173.19;4833303;29;20113;-79
2020/12/29 09:38:35;;;;;;;1.85;1.50;;;;;;;-0.50;100.00;97179.16;4844775;29;20053;-77
2020/12/29 09:41:38;;;;;;;3.03;1.27;;;;;;;-0.48;100.00;97190.38;4846981;29;20061;-77
2020/12/29 09:44:42;;;;;;;1.23;0.77;;;;;;;-0.48;100.00;97185.66;4862176;29;20430;-78
2020/12/29 09:47:45;;;;;;;1.65;1.55;;;;;;;-0.42;100.00;97197.44;4850662;29;20056;-77
2020/12/29 09:50:48;;;;;;;2.58;2.38;;;;;;;-0.38;100.00;97208.19;4861866;29;20075;-79
2020/12/29 09:53:51;;;;;;;3.22;1.85;;;;;;;-0.28;100.00;97215.88;4848314;29;20533;-78
2020/12/29 09:56:56;;;;;;;2.80;1.10;;;;;;;-0.14;100.00;97217.13;4848126;29;20516;-78
2020/12/29 09:59:59;;;;;;;12.60;1.45;;;;;;;0.00;100.00;97227.38;4847803;29;20052;-80
2020/12/29 10:03:02;;;;;;;1.63;1.52;;;;;;;0.13;100.00;97224.38;4848679;29;20056;-78
2020/12/29 10:06:05;;;;;;;4.20;1.55;;;;;;;0.29;100.00;97232.09;4867222;29;20076;-78
2020/12/29 10:09:08;;;;;;;1.35;1.25;;;;;;;0.42;100.00;97238.06;4866681;29;20096;-79
2020/12/29 10:12:11;;;;;;;2.50;1.23;;;;;;;0.56;100.00;97248.28;4859503;29;20121;-78
2020/12/29 10:15:14;;;;;;;1.42;1.33;;;;;;;0.63;100.00;97253.34;4860111;29;20145;-78
2020/12/29 10:18:17;;;;;;;3.20;1.52;;;;;;;0.65;100.00;97264.63;4859231;29;20093;-77
2020/12/29 10:21:20;;;;;;;5.18;1.38;;;;;;;0.60;100.00;97259.78;4859200;29;20057;-76
2020/12/29 10:24:24;;;;;;;1.55;1.13;;;;;;;0.58;100.00;97273.19;4858342;29;20076;-77
2020/12/29 10:27:27;;;;;;;0.77;0.77;;;;;;;0.56;100.00;97272.91;4854203;29;20121;-77
2020/12/29 10:30:30;;;;;;;3.70;1.35;;;;;;;0.56;100.00;97284.59;4851550;29;20089;-76
2020/12/29 10:33:33;;;;;;;2.03;1.17;;;;;;;0.54;100.00;97286.31;4858527;29;20105;-77
2020/12/29 10:36:36;;;;;;;3.25;1.60;;;;;;;0.61;100.00;97286.69;4859119;29;20052;-78
2020/12/29 10:39:39;;;;;;;2.00;1.30;;;;;;;0.73;100.00;97299.38;4847412;29;20193;-78
2020/12/29 10:42:42;;;;;;;1.27;1.23;;;;;;;0.70;100.00;97300.31;4859295;29;20100;-78
2020/12/29 10:45:45;;;;;;;2.38;1.02;;;;;;;0.78;100.00;97308.88;4859106;29;20080;-79
2020/12/29 10:48:48;;;;;;;2.58;1.58;;;;;;;0.88;100.00;97307.59;4858970;29;20052;-79
2020/12/29 10:51:51;;;;;;;0.90;0.63;;;;;;;0.93;100.00;97308.91;4859357;29;20680;-78
2020/12/29 10:54:54;;;;;;;6.93;0.80;;;;;;;0.98;100.00;97322.69;4859185;29;20160;-77
2020/12/29 10:57:57;;;;;;;4.43;1.10;;;;;;;1.02;100.00;97328.72;4866802;29;20101;-79
2020/12/29 11:01:00;;;;;;;1.52;0.70;;;;;;;1.04;100.00;97337.22;4856052;29;20056;-78
2020/12/29 11:04:03;;;;;;;5.25;1.55;;;;;;;1.07;100.00;97338.28;4871191;29;20051;-79
2020/12/29 11:07:06;;;;;;;1.25;0.98;;;;;;;1.09;100.00;97344.78;4854669;29;20097;-79
2020/12/29 11:10:08;;;;;;;2.28;1.20;;;;;;;1.06;100.00;97343.00;4862143;29;20578;-79
2020/12/29 11:13:11;;;;;;;4.32;1.55;;;;;;;1.13;100.00;97350.06;4862022;29;20057;-79
2020/12/29 11:16:19;;;;;;;3.72;0.77;;;;;;;1.19;100.00;97348.22;4862607;29;20045;-79
2020/12/29 11:19:21;;;;;;;4.40;1.20;;;;;;;1.23;100.00;97354.25;4861766;29;20056;-79
2020/12/29 11:22:24;;;;;;;2.67;1.65;;;;;;;1.31;100.00;97358.88;4861999;29;20182;-79
2020/12/29 11:25:28;;;;;;;1.50;0.60;;;;;;;1.36;100.00;97358.22;4862793;29;20052;-77
2020/12/29 11:28:31;;;;;;;4.25;1.23;;;;;;;1.43;100.00;97363.28;4861819;29;20117;-80
2020/12/29 11:31:34;;;;;;;7.60;1.75;;;;;;;1.54;100.00;97374.44;4862320;29;20056;-79
2020/12/29 11:34:48;;;;;;;0.95;0.88;;;;;;;1.64;100.00;97374.34;4861744;29;20072;-78
2020/12/29 11:37:52;;;;;;;5.05;1.63;;;;;;;1.68;100.00;97383.88;4850536;29;20518;-78
2020/12/29 11:40:55;;;;;;;4.90;1.50;;;;;;;1.65;100.00;97389.53;4865525;29;20083;-76
2020/12/29 11:43:58;;;;;;;2.78;1.67;;;;;;;1.63;100.00;97379.06;4867137;29;20047;-77
2020/12/29 11:47:01;;;;;;;9.23;1.80;;;;;;;1.58;100.00;97396.19;4867818;29;20058;-76
2020/12/29 11:50:04;;;;;;;6.63;2.78;;;;;;;1.58;100.00;97389.94;4860059;29;20110;-76
2020/12/29 11:53:07;;;;;;;6.95;1.88;;;;;;;1.54;100.00;97407.34;4857922;29;20363;-74
2020/12/29 11:56:11;;;;;;;9.00;2.53;;;;;;;1.50;100.00;97406.03;4859703;29;20053;-76
2020/12/29 11:59:14;;;;;;;6.43;2.03;;;;;;;1.53;100.00;97421.53;4859921;29;20056;-75
2020/12/29 12:02:17;;;;;;;5.38;1.38;;;;;;;1.51;100.00;97427.50;4860020;29;20144;-76
2020/12/29 12:05:20;;;;;;;4.50;1.80;;;;;;;1.49;100.00;97427.19;4859478;29;20057;-75
2020/12/29 12:08:23;;;;;;;1.98;1.85;;;;;;;1.47;100.00;97437.88;4859782;29;20105;-75
2020/12/29 12:11:28;;;;;;;3.72;2.10;;;;;;;1.49;100.00;97437.44;4861185;29;20065;-76
2020/12/29 12:14:31;;;;;;;9.60;2.30;;;;;;;1.46;100.00;97450.09;4860568;29;20414;-76
2020/12/29 12:17:34;;;;;;;5.28;2.08;;;;;;;1.45;100.00;97448.56;4860739;29;20098;-76
2020/12/29 12:20:37;;;;;;;10.98;3.42;;;;;;;1.42;100.00;97452.28;4860916;29;20064;-76
2020/12/29 12:23:40;;;;;;;11.05;2.92;;;;;;;1.43;100.00;97451.03;4861190;29;20057;-79
2020/12/29 12:26:43;;;;;;;6.43;2.63;;;;;;;1.46;100.00;97452.84;4861397;29;20056;-78
2020/12/29 12:29:45;;;;;;;13.40;2.28;;;;;;;1.47;100.00;97450.88;4861322;29;20133;-77
2020/12/29 12:32:48;;;;;;;7.07;2.13;;;;;;;1.49;100.00;97460.09;4861204;29;20048;-78
2020/12/29 12:35:51;;;;;;;8.45;2.88;;;;;;;1.51;100.00;97459.66;4824613;29;20102;-78
2020/12/29 12:38:54;;;;;;;10.05;2.35;;;;;;;1.53;100.00;97470.91;4824563;29;20053;-79
2020/12/29 12:41:57;;;;;;;11.13;3.17;;;;;;;1.56;100.00;97474.69;4824675;29;20461;-79
2020/12/29 12:45:00;;;;;;;10.65;2.85;;;;;;;1.60;100.00;97491.72;4823995;29;20453;-80
2020/12/29 12:48:03;;;;;;;3.35;1.60;;;;;;;1.62;100.00;97494.75;4823833;29;21019;-81
2020/12/29 12:51:06;;;;;;;1.35;1.15;;;;;;;1.64;100.00;97498.53;4824563;29;20451;-80
2020/12/29 12:54:09;;;;;;;2.03;1.40;;;;;;;1.59;100.00;97496.44;4823849;29;20103;-80
2020/12/29 12:57:12;;;;;;;2.45;2.17;;;;;;;1.54;100.00;97506.06;4823039;29;20294;-80
2020/12/29 13:00:15;;;;;;;1.52;1.42;;;;;;;1.47;100.00;97509.19;4823429;29;20103;-79
2020/12/29 13:03:18;;;;;;;1.70;0.95;;;;;;;1.44;100.00;97512.88;4823183;29;20061;-79
2020/12/29 13:06:22;;;;;;;0.40;0.40;;;;;;;1.46;100.00;97515.16;4822864;29;20057;-79
2020/12/29 13:09:25;;;;;;;4.93;2.05;;;;;;;1.45;100.00;97525.34;4823634;29;20057;-79
2020/12/29 13:12:27;;;;;;;2.72;1.63;;;;;;;1.44;100.00;97534.81;4823487;29;20150;-79
2020/12/29 13:15:30;;;;;;;4.72;1.95;;;;;;;1.44;100.00;97529.34;4823548;29;20085;-79
2020/12/29 13:18:34;;;;;;;4.00;1.10;;;;;;;1.39;100.00;97537.44;4822092;29;20065;-79
2020/12/29 13:21:37;;;;;;;10.55;1.23;;;;;;;1.38;100.00;97542.19;4823358;29;20483;-79
2020/12/29 13:24:39;;;;;;;8.20;2.53;;;;;;;1.34;100.00;97552.56;4823405;29;20127;-80
2020/12/29 13:27:42;;;;;;;8.43;2.13;;;;;;;1.31;100.00;97556.25;4823544;29;20445;-78
2020/12/29 13:30:45;;;;;;;3.55;1.00;;;;;;;1.28;100.00;97562.66;4823403;29;20367;-78
2020/12/29 13:33:49;;;;;;;11.77;2.80;;;;;;;1.29;100.00;97563.44;4837454;29;20113;-79
2020/12/29 13:36:52;;;;;;;6.03;3.05;;;;;;;1.27;100.00;97566.66;4859695;29;20109;-78
2020/12/29 13:39:55;;;;;;;8.30;2.42;;;;;;;1.21;100.00;97573.97;4860462;29;20064;-79
2020/12/29 13:42:59;;;;;;;10.45;2.50;;;;;;;1.20;100.00;97583.44;4857147;29;20065;-78
2020/12/29 13:46:06;;;;;;;5.10;1.63;;;;;;;1.16;100.00;97596.56;4841364;29;20526;-79
2020/12/29 13:49:10;;;;;;;17.67;4.03;;;;;;;1.12;100.00;97601.47;4841202;29;20403;-79
2020/12/29 13:52:14;;;;;;;6.03;2.40;;;;;;;1.08;100.00;97608.38;4842411;29;20178;-80
2020/12/29 13:55:18;;;;;;;6.32;2.25;;;;;;;1.08;100.00;97608.38;4840473;29;20148;-79
2020/12/29 13:58:21;;;;;;;4.22;2.35;;;;;;;1.09;100.00;97620.81;4832345;29;20057;-79
2020/12/29 14:01:23;;;;;;;2.78;1.27;;;;;;;1.06;100.00;97628.00;4823346;29;20053;-79
2020/12/29 14:04:26;;;;;;;3.42;1.15;;;;;;;1.03;100.00;97620.72;4823707;29;20053;-78
2020/12/29 14:07:29;;;;;;;19.60;4.82;;;;;;;1.04;100.00;97626.97;4823290;29;20115;-78
2020/12/29 14:10:32;;;;;;;27.05;6.68;;;;;;;1.02;100.00;97635.63;4823535;29;20075;-79
2020/12/29 14:13:36;;;;;;;13.02;3.78;;;;;;;1.04;100.00;97638.66;4823238;29;20049;-78
2020/12/29 14:16:39;;;;;;;8.32;3.47;;;;;;;1.08;100.00;97650.22;4823710;29;20057;-79
2020/12/29 14:19:42;;;;;;;13.52;3.95;;;;;;;1.11;100.00;97649.28;4823848;29;20146;-79